Portada
METAR-TAF:

METAR-TAF

Aeroports :

Cebú, Filipines

latitud: 10-18-48N, longitud: 123-58-58E, altitud: 23 m

Observació

L'informe es va fer fa 15 minuts, a les 01:00 UTC
Vent 13 kt del Nord-Est
Temperatura 28°C
Humitat 66%
Pressió 1019 hPa
Visibilitat 10 km o més
Escasses núvols a una alçada de 2000 ft

METAR: RPVM 210100Z 04013KT 9999 FEW020 28/21 Q1019 RMK A3009

Hora: 09:15 (01:15 UTC)

Pronòstic

L'informe es va fer fa 2 hores i 15 minuts, a les 23:00 UTC
Pronòstic vàlid del 21 a les 00 UTC al 22 a les 06 UTC
Vent 12 kt del Nord-Est
Visibilitat 10 km o més
Escasses núvols a una alçada de 2000 ft
Núvols disperses a una alçada de 30000 ft
Temporalment
l' 21 a les 00 UTC al 21 a les 06 UTC
Vent 14 kt del Nord-Est
Temporalment
l' 21 a les 06 UTC al 21 a les 12 UTC
Vent 12 kt del Nord/Nord-Est

TAF: RPVM 202300Z 2100/2206 04012KT 9999 FEW020 SCT300 TEMPO 2100/2106 04014KT TEMPO 2106/2112 03012KT

Observacions i pronòstics meteorològics de més de 4000 aeroports (METAR i TAF).

Les estacions disponibles són els punts grocs i vermells al mapa.

Posi el ratolí al punt desitjat per veure el nom de l'estació.

Feu clic per veure les observacions i els pronòstics meteorològics.

Per canviar el mapa: feu clic els botons verds amb una creu de color negre per apropar; al botó verd amb un guió per allunyar la imatge; o en les fletxes verdes per a mapes adjacents.


METAR-TAF: